Time;durP1;ratioP1;P1;durP2;ratioP2;P2;SDS_P1;SDS_P2;PMS_P1;PMS_P2;Temp;Humidity;BMP_temperature;BMP_pressure;BME280_temperature;BME280_humidity;BME280_pressure;Samples;Min_cycle;Max_cycle;Signal;HPM_P1;HPM_P2
2022/07/09 00:00:05;;;;;;;4.38;2.10;;;;;;;;;;5012030;28;20407;-74
2022/07/09 00:02:31;;;;;;;7.03;2.15;;;;;;;;;;5007990;28;20485;-74
2022/07/09 00:04:57;;;;;;;4.28;1.92;;;;;;;;;;5002491;28;20150;-74
2022/07/09 00:07:24;;;;;;;4.00;1.95;;;;;;;;;;5008125;28;20029;-75
2022/07/09 00:09:51;;;;;;;9.18;2.42;;;;;;;;;;5007236;28;20037;-74
2022/07/09 00:12:17;;;;;;;5.72;2.60;;;;;;;;;;5006798;28;20040;-74
2022/07/09 00:14:44;;;;;;;7.15;2.08;;;;;;;;;;5010342;28;20029;-73
2022/07/09 00:17:10;;;;;;;6.93;1.95;;;;;;;;;;5006440;28;20036;-73
2022/07/09 00:19:36;;;;;;;6.43;2.03;;;;;;;;;;5007285;28;20109;-74
2022/07/09 00:22:04;;;;;;;6.72;2.08;;;;;;;;;;5005492;28;20034;-74
2022/07/09 00:24:30;;;;;;;4.68;1.95;;;;;;;;;;5008923;28;20034;-74
2022/07/09 00:26:56;;;;;;;2.85;1.50;;;;;;;;;;5012063;28;20041;-74
2022/07/09 00:29:22;;;;;;;10.23;1.90;;;;;;;;;;5005230;28;20040;-73
2022/07/09 00:31:48;;;;;;;5.70;2.00;;;;;;;;;;5013082;28;20038;-74
2022/07/09 00:34:14;;;;;;;7.47;2.30;;;;;;;;;;5011829;28;20088;-74
2022/07/09 00:36:40;;;;;;;7.95;2.15;;;;;;;;;;5012795;28;20084;-74
2022/07/09 00:39:06;;;;;;;6.18;1.90;;;;;;;;;;5010013;28;20117;-74
2022/07/09 00:41:33;;;;;;;9.23;2.25;;;;;;;;;;5014717;28;20032;-74
2022/07/09 00:43:59;;;;;;;6.68;2.38;;;;;;;;;;5010793;28;20030;-74
2022/07/09 00:46:25;;;;;;;7.35;1.40;;;;;;;;;;5013424;28;20398;-74
2022/07/09 00:48:51;;;;;;;4.70;1.40;;;;;;;;;;5008006;28;20363;-74
2022/07/09 00:51:18;;;;;;;2.97;1.25;;;;;;;;;;5010629;28;20764;-73
2022/07/09 00:53:45;;;;;;;2.55;1.30;;;;;;;;;;5009392;28;20034;-74
2022/07/09 00:56:12;;;;;;;2.90;1.05;;;;;;;;;;5010146;28;20068;-76
2022/07/09 00:58:39;;;;;;;8.07;0.90;;;;;;;;;;5008229;28;20030;-74
2022/07/09 01:01:06;;;;;;;7.50;2.00;;;;;;;;;;5010824;28;20034;-75
2022/07/09 01:03:33;;;;;;;5.05;1.45;;;;;;;;;;5016474;28;20061;-74
2022/07/09 01:05:59;;;;;;;8.88;1.25;;;;;;;;;;5007406;28;20430;-74
2022/07/09 01:08:25;;;;;;;5.55;1.23;;;;;;;;;;5009422;28;20046;-74
2022/07/09 01:10:52;;;;;;;3.42;1.00;;;;;;;;;;5009169;28;20034;-76
2022/07/09 01:13:18;;;;;;;2.92;0.80;;;;;;;;;;5008731;28;20533;-75
2022/07/09 01:15:44;;;;;;;3.10;1.30;;;;;;;;;;5009109;28;20030;-74
2022/07/09 01:18:13;;;;;;;2.85;0.80;;;;;;;;;;5009083;28;20551;-74
2022/07/09 01:20:40;;;;;;;4.53;1.00;;;;;;;;;;5007636;28;20819;-74
2022/07/09 01:23:07;;;;;;;4.03;1.13;;;;;;;;;;5009482;28;20670;-74
2022/07/09 01:25:51;;;;;;;3.00;0.90;;;;;;;;;;5009017;28;20037;-74
2022/07/09 01:28:17;;;;;;;8.20;1.25;;;;;;;;;;5005847;28;20048;-76
2022/07/09 01:30:43;;;;;;;5.32;1.30;;;;;;;;;;5008738;28;20029;-73
2022/07/09 01:33:10;;;;;;;3.67;1.20;;;;;;;;;;5009079;28;20026;-74
2022/07/09 01:35:36;;;;;;;5.60;1.10;;;;;;;;;;5007235;28;20038;-74
2022/07/09 01:38:02;;;;;;;4.35;1.10;;;;;;;;;;5008543;28;20017;-74
2022/07/09 01:40:28;;;;;;;6.85;1.77;;;;;;;;;;5008280;28;20033;-75
2022/07/09 01:42:54;;;;;;;4.60;1.27;;;;;;;;;;5007240;28;20022;-74
2022/07/09 01:45:21;;;;;;;3.40;1.10;;;;;;;;;;5008809;28;20030;-75
2022/07/09 01:47:47;;;;;;;3.25;1.30;;;;;;;;;;5008645;28;20041;-74
2022/07/09 01:50:13;;;;;;;4.20;1.30;;;;;;;;;;5008564;28;20049;-74
2022/07/09 01:52:39;;;;;;;2.30;1.10;;;;;;;;;;5008716;28;20053;-74
2022/07/09 01:55:06;;;;;;;8.90;2.08;;;;;;;;;;5006868;28;20032;-74
2022/07/09 01:57:32;;;;;;;3.95;1.30;;;;;;;;;;5008384;28;20111;-75
2022/07/09 01:59:58;;;;;;;6.18;1.40;;;;;;;;;;5007994;28;20057;-74
2022/07/09 02:02:24;;;;;;;6.72;4.85;;;;;;;;;;5008962;28;20068;-74
2022/07/09 02:04:50;;;;;;;8.57;6.00;;;;;;;;;;5008092;28;20041;-75
2022/07/09 02:07:17;;;;;;;4.75;3.10;;;;;;;;;;5008696;28;20537;-74
2022/07/09 02:09:43;;;;;;;6.05;2.78;;;;;;;;;;5006683;28;20382;-74
2022/07/09 02:12:09;;;;;;;7.40;2.97;;;;;;;;;;5008303;28;20067;-74
2022/07/09 02:14:35;;;;;;;3.38;2.10;;;;;;;;;;5007100;28;20463;-76
2022/07/09 02:17:01;;;;;;;4.72;1.60;;;;;;;;;;5007700;28;20044;-74
2022/07/09 02:19:28;;;;;;;6.78;2.42;;;;;;;;;;5008174;28;20084;-74
2022/07/09 02:21:54;;;;;;;4.80;1.60;;;;;;;;;;5007834;28;20034;-75
2022/07/09 02:24:20;;;;;;;6.90;1.90;;;;;;;;;;5005653;28;20033;-76
2022/07/09 02:26:46;;;;;;;3.20;1.63;;;;;;;;;;5007967;28;20040;-74
2022/07/09 02:29:12;;;;;;;4.20;1.52;;;;;;;;;;5007258;28;20032;-74
2022/07/09 02:31:38;;;;;;;5.75;1.30;;;;;;;;;;5008183;28;20022;-74
2022/07/09 02:34:04;;;;;;;4.25;1.50;;;;;;;;;;5007590;28;20048;-75
2022/07/09 02:36:30;;;;;;;4.55;1.73;;;;;;;;;;5007965;28;20044;-74
2022/07/09 02:38:56;;;;;;;4.30;2.22;;;;;;;;;;5005893;28;20064;-74
2022/07/09 02:41:23;;;;;;;6.47;2.85;;;;;;;;;;5008245;28;20030;-74
2022/07/09 02:43:49;;;;;;;4.03;2.35;;;;;;;;;;5007683;28;20034;-74
2022/07/09 02:46:15;;;;;;;6.18;1.73;;;;;;;;;;5007545;28;20054;-74
2022/07/09 02:48:41;;;;;;;5.15;1.58;;;;;;;;;;5007961;28;20032;-74
2022/07/09 02:51:07;;;;;;;5.95;1.45;;;;;;;;;;5007342;28;20174;-74
2022/07/09 02:53:34;;;;;;;6.80;1.42;;;;;;;;;;5006286;28;20530;-74
2022/07/09 02:56:00;;;;;;;4.47;1.40;;;;;;;;;;5007268;28;20034;-74
2022/07/09 02:58:26;;;;;;;4.15;1.30;;;;;;;;;;5007366;28;20025;-74
2022/07/09 03:00:52;;;;;;;3.47;1.45;;;;;;;;;;5005724;28;20042;-76
2022/07/09 03:03:18;;;;;;;2.55;1.10;;;;;;;;;;5006748;28;20096;-74
2022/07/09 03:05:44;;;;;;;9.15;1.77;;;;;;;;;;5007558;28;20033;-74
2022/07/09 03:08:11;;;;;;;6.88;1.70;;;;;;;;;;5005697;28;20072;-74
2022/07/09 03:10:37;;;;;;;4.53;1.45;;;;;;;;;;5006932;28;20029;-74
2022/07/09 03:13:03;;;;;;;6.03;1.60;;;;;;;;;;5006811;28;20064;-74
2022/07/09 03:15:29;;;;;;;4.63;1.00;;;;;;;;;;5005981;28;20112;-74
2022/07/09 03:17:56;;;;;;;2.63;1.40;;;;;;;;;;5001890;28;20026;-77
2022/07/09 03:20:22;;;;;;;3.15;1.20;;;;;;;;;;5002038;28;20030;-74
2022/07/09 03:22:48;;;;;;;3.88;1.88;;;;;;;;;;5002400;28;20033;-74
2022/07/09 03:25:14;;;;;;;6.90;1.40;;;;;;;;;;5001592;28;20038;-74
2022/07/09 03:27:40;;;;;;;4.07;1.10;;;;;;;;;;5001798;28;20506;-74
2022/07/09 03:30:07;;;;;;;2.63;0.98;;;;;;;;;;5000364;28;20409;-73
2022/07/09 03:32:33;;;;;;;3.97;1.23;;;;;;;;;;5001653;28;20041;-73
2022/07/09 03:34:59;;;;;;;5.80;1.33;;;;;;;;;;5002345;28;20042;-74
2022/07/09 03:37:26;;;;;;;2.67;1.10;;;;;;;;;;5001937;28;20030;-74
2022/07/09 03:39:52;;;;;;;3.70;1.25;;;;;;;;;;5001570;28;20513;-74
2022/07/09 03:42:18;;;;;;;3.70;1.13;;;;;;;;;;5001181;28;20029;-74
2022/07/09 03:44:44;;;;;;;3.72;1.30;;;;;;;;;;5000246;28;20018;-74
2022/07/09 03:47:10;;;;;;;3.60;1.33;;;;;;;;;;5001364;28;20084;-74
2022/07/09 03:49:36;;;;;;;6.88;1.45;;;;;;;;;;4999695;28;20029;-73
2022/07/09 03:52:03;;;;;;;3.85;1.27;;;;;;;;;;4998298;28;20045;-74
2022/07/09 03:54:29;;;;;;;2.53;1.08;;;;;;;;;;4998854;28;20033;-73
2022/07/09 03:56:55;;;;;;;3.97;1.08;;;;;;;;;;4999732;28;20048;-73
2022/07/09 03:59:21;;;;;;;3.75;1.02;;;;;;;;;;4998867;28;20804;-74
2022/07/09 04:01:47;;;;;;;12.10;1.38;;;;;;;;;;4997796;28;20026;-73
2022/07/09 04:04:14;;;;;;;5.20;1.27;;;;;;;;;;4998770;28;20038;-75
2022/07/09 04:06:40;;;;;;;8.57;1.40;;;;;;;;;;4999536;28;20490;-73
2022/07/09 04:09:06;;;;;;;3.50;0.90;;;;;;;;;;4998805;28;20061;-75
2022/07/09 04:11:32;;;;;;;7.00;1.15;;;;;;;;;;4999316;28;20037;-74
2022/07/09 04:14:02;;;;;;;2.92;1.20;;;;;;;;;;4997229;28;20038;-74
2022/07/09 04:16:29;;;;;;;3.15;0.85;;;;;;;;;;4999024;28;20029;-73
2022/07/09 04:18:55;;;;;;;7.50;1.70;;;;;;;;;;4998708;28;20083;-74
2022/07/09 04:21:22;;;;;;;5.40;1.25;;;;;;;;;;4999414;28;20753;-74
2022/07/09 04:23:52;;;;;;;11.75;1.80;;;;;;;;;;4999129;28;20022;-74
2022/07/09 04:26:19;;;;;;;4.00;1.25;;;;;;;;;;4997423;28;20034;-73
2022/07/09 04:28:45;;;;;;;4.95;1.15;;;;;;;;;;4996936;28;20589;-73
2022/07/09 04:31:12;;;;;;;2.22;1.25;;;;;;;;;;4999327;28;20042;-73
2022/07/09 04:33:38;;;;;;;33.47;3.17;;;;;;;;;;4999250;28;20188;-73
2022/07/09 04:36:04;;;;;;;4.70;1.60;;;;;;;;;;4997242;28;20042;-73
2022/07/09 04:38:30;;;;;;;2.88;1.17;;;;;;;;;;5000105;28;20119;-74
2022/07/09 04:40:58;;;;;;;3.40;1.42;;;;;;;;;;5002479;28;20024;-73
2022/07/09 04:43:24;;;;;;;5.20;1.15;;;;;;;;;;5002964;28;20095;-74
2022/07/09 04:45:50;;;;;;;2.05;1.02;;;;;;;;;;5001232;28;20029;-74
2022/07/09 04:48:17;;;;;;;4.63;1.48;;;;;;;;;;5002954;28;20041;-73
2022/07/09 04:50:43;;;;;;;3.70;1.45;;;;;;;;;;5002409;28;20030;-73
2022/07/09 04:53:09;;;;;;;3.78;1.90;;;;;;;;;;5002098;28;20174;-74
2022/07/09 04:55:35;;;;;;;3.38;1.40;;;;;;;;;;5001353;28;20033;-73
2022/07/09 04:58:01;;;;;;;4.20;1.60;;;;;;;;;;5002460;28;20091;-74
2022/07/09 05:00:27;;;;;;;4.93;1.25;;;;;;;;;;5000557;28;20506;-73
2022/07/09 05:02:53;;;;;;;4.13;1.38;;;;;;;;;;5002050;28;20037;-74
2022/07/09 05:05:23;;;;;;;2.08;1.40;;;;;;;;;;5002383;28;20034;-73
2022/07/09 05:07:49;;;;;;;3.17;1.65;;;;;;;;;;5001610;28;20026;-73
2022/07/09 05:10:15;;;;;;;3.88;1.40;;;;;;;;;;5000800;28;20721;-73
2022/07/09 05:12:42;;;;;;;5.40;1.70;;;;;;;;;;5001563;28;20810;-74
2022/07/09 05:15:09;;;;;;;2.35;1.50;;;;;;;;;;5001901;28;20061;-73
2022/07/09 05:17:36;;;;;;;4.47;1.63;;;;;;;;;;5001749;28;20175;-76
2022/07/09 05:20:03;;;;;;;1.73;1.23;;;;;;;;;;5002618;28;20520;-74
2022/07/09 05:22:31;;;;;;;2.90;1.40;;;;;;;;;;5002392;28;20222;-73
2022/07/09 05:24:57;;;;;;;3.58;1.50;;;;;;;;;;4999953;28;20087;-74
2022/07/09 05:27:23;;;;;;;2.20;1.52;;;;;;;;;;5000262;28;20088;-73
2022/07/09 05:29:50;;;;;;;3.25;1.50;;;;;;;;;;5001975;28;20117;-74
2022/07/09 05:32:16;;;;;;;2.30;1.35;;;;;;;;;;5001432;28;20053;-73
2022/07/09 05:34:43;;;;;;;3.17;1.65;;;;;;;;;;5001539;28;20053;-73
2022/07/09 05:37:09;;;;;;;5.28;1.67;;;;;;;;;;5000173;28;20569;-73
2022/07/09 05:39:35;;;;;;;6.15;1.67;;;;;;;;;;4995424;28;20033;-73
2022/07/09 05:42:01;;;;;;;4.40;1.90;;;;;;;;;;5001659;28;20125;-74
2022/07/09 05:44:27;;;;;;;4.15;1.88;;;;;;;;;;5001166;28;20042;-73
2022/07/09 05:46:53;;;;;;;2.38;1.50;;;;;;;;;;5001710;28;20326;-73
2022/07/09 05:49:20;;;;;;;3.58;1.73;;;;;;;;;;4999681;28;20881;-73
2022/07/09 05:51:46;;;;;;;5.20;1.58;;;;;;;;;;5000264;28;20508;-74
2022/07/09 05:54:12;;;;;;;3.00;1.65;;;;;;;;;;5001537;28;20042;-73
2022/07/09 05:56:38;;;;;;;3.15;1.88;;;;;;;;;;5001269;28;20026;-73
2022/07/09 05:59:05;;;;;;;3.58;1.50;;;;;;;;;;5000057;28;20129;-74
2022/07/09 06:01:32;;;;;;;3.58;1.70;;;;;;;;;;5000052;28;20057;-73
2022/07/09 06:03:58;;;;;;;6.35;1.73;;;;;;;;;;5001106;28;20041;-75
2022/07/09 06:06:24;;;;;;;3.50;1.70;;;;;;;;;;4998826;28;20168;-74
2022/07/09 06:08:50;;;;;;;2.47;1.40;;;;;;;;;;4998412;28;20044;-77
2022/07/09 06:11:16;;;;;;;3.00;1.50;;;;;;;;;;4996192;28;20017;-74
2022/07/09 06:13:43;;;;;;;5.88;1.75;;;;;;;;;;5000613;28;20038;-73
2022/07/09 06:16:09;;;;;;;3.92;1.52;;;;;;;;;;5001164;28;20654;-73
2022/07/09 06:18:35;;;;;;;7.10;1.75;;;;;;;;;;5001023;28;20028;-74
2022/07/09 06:21:01;;;;;;;3.05;1.80;;;;;;;;;;4999325;28;20065;-75
2022/07/09 06:23:27;;;;;;;4.63;1.48;;;;;;;;;;5002200;28;20040;-73
2022/07/09 06:25:54;;;;;;;4.53;1.67;;;;;;;;;;5000490;28;20038;-73
2022/07/09 06:28:20;;;;;;;9.13;2.00;;;;;;;;;;4999122;28;20033;-80
2022/07/09 06:30:46;;;;;;;5.65;2.00;;;;;;;;;;5001002;28;20022;-73
2022/07/09 06:33:12;;;;;;;3.10;2.05;;;;;;;;;;4999463;28;20095;-77
2022/07/09 06:35:38;;;;;;;2.88;1.73;;;;;;;;;;5001111;28;20426;-74
2022/07/09 06:38:04;;;;;;;3.65;2.03;;;;;;;;;;4999764;28;20029;-76
2022/07/09 06:40:31;;;;;;;4.65;1.98;;;;;;;;;;5000144;28;20893;-75
2022/07/09 06:42:57;;;;;;;7.45;2.13;;;;;;;;;;4997892;28;20037;-76
2022/07/09 06:45:23;;;;;;;5.70;1.80;;;;;;;;;;4993751;28;20622;-73
2022/07/09 06:47:49;;;;;;;5.25;2.28;;;;;;;;;;4997970;28;20036;-74
2022/07/09 06:50:15;;;;;;;3.15;2.00;;;;;;;;;;5001337;28;20045;-74
2022/07/09 06:52:41;;;;;;;4.50;2.00;;;;;;;;;;5001289;28;20064;-73
2022/07/09 06:55:08;;;;;;;3.90;2.00;;;;;;;;;;5001135;28;20029;-74
2022/07/09 06:57:34;;;;;;;7.65;2.47;;;;;;;;;;5000469;28;20026;-74
2022/07/09 07:00:01;;;;;;;8.23;3.28;;;;;;;;;;4992709;28;20057;-74
2022/07/09 07:02:27;;;;;;;5.10;2.50;;;;;;;;;;5000411;28;20026;-75
2022/07/09 07:04:53;;;;;;;3.15;2.22;;;;;;;;;;4994894;28;20034;-73
2022/07/09 07:07:20;;;;;;;4.25;2.00;;;;;;;;;;5001112;28;20084;-74
2022/07/09 07:09:46;;;;;;;3.08;2.20;;;;;;;;;;5000048;28;20099;-73
2022/07/09 07:12:12;;;;;;;3.80;2.33;;;;;;;;;;5000367;28;20025;-73
2022/07/09 07:14:38;;;;;;;3.22;2.00;;;;;;;;;;4997996;28;20034;-75
2022/07/09 07:17:05;;;;;;;4.38;2.03;;;;;;;;;;5000647;28;20888;-75
2022/07/09 07:19:31;;;;;;;4.60;2.88;;;;;;;;;;4999763;28;20044;-73
2022/07/09 07:21:57;;;;;;;4.70;2.20;;;;;;;;;;5000035;28;20034;-74
2022/07/09 07:24:23;;;;;;;5.38;2.65;;;;;;;;;;4999154;28;20041;-74
2022/07/09 07:26:49;;;;;;;4.20;2.30;;;;;;;;;;4997700;28;20026;-76
2022/07/09 07:29:15;;;;;;;2.95;2.40;;;;;;;;;;4999967;28;20597;-79
2022/07/09 07:31:41;;;;;;;5.55;2.50;;;;;;;;;;5000168;28;20030;-74
2022/07/09 07:34:08;;;;;;;5.15;3.03;;;;;;;;;;4999779;28;20597;-75
2022/07/09 07:36:34;;;;;;;6.82;2.72;;;;;;;;;;4998656;28;20088;-74
2022/07/09 07:39:00;;;;;;;7.28;2.92;;;;;;;;;;4999089;28;20073;-77
2022/07/09 07:41:27;;;;;;;6.78;3.10;;;;;;;;;;4998481;28;20089;-74
2022/07/09 07:43:53;;;;;;;5.35;2.90;;;;;;;;;;4988191;28;20645;-74
2022/07/09 07:46:19;;;;;;;5.55;2.60;;;;;;;;;;4995032;28;20021;-75
2022/07/09 07:48:45;;;;;;;6.63;2.80;;;;;;;;;;4998762;28;20034;-74
2022/07/09 07:51:12;;;;;;;6.00;2.78;;;;;;;;;;4989598;28;20026;-74
2022/07/09 07:53:39;;;;;;;6.70;2.85;;;;;;;;;;4998972;28;20033;-74
2022/07/09 07:56:06;;;;;;;5.53;2.42;;;;;;;;;;4994331;28;20034;-74
2022/07/09 07:58:33;;;;;;;6.93;3.83;;;;;;;;;;4996769;28;20488;-75
2022/07/09 08:00:59;;;;;;;4.78;3.20;;;;;;;;;;4998964;28;20057;-73
2022/07/09 08:03:25;;;;;;;4.07;2.75;;;;;;;;;;4998810;28;20033;-74
2022/07/09 08:05:52;;;;;;;7.88;3.30;;;;;;;;;;4995951;28;20036;-73
2022/07/09 08:08:21;;;;;;;4.65;2.67;;;;;;;;;;4998943;28;20041;-73
2022/07/09 08:10:48;;;;;;;6.03;2.75;;;;;;;;;;4991667;28;20788;-73
2022/07/09 08:13:14;;;;;;;5.95;2.85;;;;;;;;;;4998249;28;20033;-73
2022/07/09 08:15:41;;;;;;;6.13;2.78;;;;;;;;;;5002474;28;20041;-73
2022/07/09 08:18:11;;;;;;;5.07;2.78;;;;;;;;;;5003348;28;20026;-73
2022/07/09 08:20:38;;;;;;;4.78;2.60;;;;;;;;;;5001293;28;20048;-74
2022/07/09 08:23:04;;;;;;;7.78;2.97;;;;;;;;;;5002775;28;20029;-73
2022/07/09 08:25:30;;;;;;;5.20;2.78;;;;;;;;;;5001062;28;20029;-74
2022/07/09 08:27:56;;;;;;;4.22;2.55;;;;;;;;;;5002999;28;20033;-74
2022/07/09 08:30:22;;;;;;;6.03;2.60;;;;;;;;;;5002976;28;20025;-73
2022/07/09 08:32:49;;;;;;;4.50;2.90;;;;;;;;;;5000879;28;20030;-74
2022/07/09 08:35:15;;;;;;;4.18;2.47;;;;;;;;;;5003104;28;20038;-74
2022/07/09 08:37:41;;;;;;;4.45;2.95;;;;;;;;;;5002364;28;20030;-73
2022/07/09 08:40:08;;;;;;;4.22;2.80;;;;;;;;;;5002935;28;20056;-73
2022/07/09 08:42:34;;;;;;;4.95;2.47;;;;;;;;;;5001437;28;20022;-74
2022/07/09 08:45:00;;;;;;;8.27;2.72;;;;;;;;;;5000654;28;20030;-75
2022/07/09 08:47:27;;;;;;;4.03;2.67;;;;;;;;;;5002649;28;20038;-73
2022/07/09 08:49:57;;;;;;;4.80;2.92;;;;;;;;;;5002695;28;20317;-73
2022/07/09 08:52:24;;;;;;;3.30;2.80;;;;;;;;;;5002566;28;20084;-73
2022/07/09 08:54:53;;;;;;;5.15;2.85;;;;;;;;;;5000791;28;20307;-74
2022/07/09 08:57:19;;;;;;;5.75;2.75;;;;;;;;;;5001790;28;20590;-73
2022/07/09 08:59:45;;;;;;;3.10;2.67;;;;;;;;;;5002490;28;20054;-73
2022/07/09 09:02:13;;;;;;;5.85;3.03;;;;;;;;;;5002397;28;20029;-73
2022/07/09 09:04:39;;;;;;;3.38;2.70;;;;;;;;;;5000715;28;20843;-74
2022/07/09 09:07:14;;;;;;;4.97;3.03;;;;;;;;;;5000265;28;20030;-73
2022/07/09 09:09:41;;;;;;;3.28;2.55;;;;;;;;;;5000825;28;20069;-73
2022/07/09 09:12:08;;;;;;;5.88;2.90;;;;;;;;;;5002005;28;20540;-75
2022/07/09 09:14:34;;;;;;;4.50;2.95;;;;;;;;;;5000861;28;20057;-74
2022/07/09 09:17:09;;;;;;;6.53;3.13;;;;;;;;;;5001712;28;20040;-74
2022/07/09 09:19:35;;;;;;;5.80;3.08;;;;;;;;;;5002239;28;20022;-73
2022/07/09 09:22:01;;;;;;;2.90;2.60;;;;;;;;;;5000278;28;20037;-74
2022/07/09 09:24:29;;;;;;;3.13;2.83;;;;;;;;;;5001805;28;20021;-74
2022/07/09 09:27:04;;;;;;;8.65;3.60;;;;;;;;;;5000740;28;20073;-74
2022/07/09 09:29:30;;;;;;;5.57;3.05;;;;;;;;;;5002169;28;20026;-74
2022/07/09 09:31:56;;;;;;;5.18;2.90;;;;;;;;;;5001853;28;20049;-74
2022/07/09 09:34:24;;;;;;;6.32;2.80;;;;;;;;;;5001453;28;20212;-73
2022/07/09 09:36:51;;;;;;;5.68;3.47;;;;;;;;;;5001790;28;20018;-74
2022/07/09 09:39:22;;;;;;;5.35;3.35;;;;;;;;;;5001420;28;20025;-74
2022/07/09 09:41:49;;;;;;;5.10;3.25;;;;;;;;;;5000742;28;20033;-74
2022/07/09 09:44:17;;;;;;;7.03;3.53;;;;;;;;;;5001037;28;20041;-74
2022/07/09 09:46:44;;;;;;;3.53;3.10;;;;;;;;;;5001544;28;20105;-73
2022/07/09 09:49:11;;;;;;;5.45;2.97;;;;;;;;;;5001553;28;20061;-73
2022/07/09 09:52:00;;;;;;;5.28;3.33;;;;;;;;;;5002234;28;20380;-73
2022/07/09 09:54:27;;;;;;;9.98;3.10;;;;;;;;;;4990412;28;20096;-73
2022/07/09 09:56:54;;;;;;;4.05;3.20;;;;;;;;;;5001394;28;20037;-74
2022/07/09 09:59:20;;;;;;;4.07;3.15;;;;;;;;;;5000625;28;20044;-73
2022/07/09 10:01:47;;;;;;;3.38;2.75;;;;;;;;;;4999611;28;20482;-73
2022/07/09 10:04:14;;;;;;;4.30;3.40;;;;;;;;;;4999908;28;20044;-74
2022/07/09 10:06:41;;;;;;;5.93;3.40;;;;;;;;;;5000162;28;20030;-73
2022/07/09 10:09:08;;;;;;;4.88;2.95;;;;;;;;;;4999746;28;20033;-74
2022/07/09 10:11:40;;;;;;;5.85;3.08;;;;;;;;;;5001386;28;20054;-74
2022/07/09 10:14:07;;;;;;;4.20;3.63;;;;;;;;;;5002056;28;20793;-73
2022/07/09 10:16:37;;;;;;;4.50;2.85;;;;;;;;;;4999062;28;20026;-73
2022/07/09 10:19:03;;;;;;;4.47;2.90;;;;;;;;;;5001191;28;20018;-73
2022/07/09 10:21:40;;;;;;;5.28;3.10;;;;;;;;;;5001278;28;20029;-73
2022/07/09 10:24:07;;;;;;;4.93;3.00;;;;;;;;;;5001338;28;20029;-73
2022/07/09 10:26:38;;;;;;;6.03;3.10;;;;;;;;;;5000084;28;20062;-73
2022/07/09 10:29:04;;;;;;;5.82;3.83;;;;;;;;;;4997020;28;20647;-73
2022/07/09 10:31:31;;;;;;;5.97;3.10;;;;;;;;;;5001297;28;20543;-73
2022/07/09 10:34:09;;;;;;;3.92;2.88;;;;;;;;;;5000633;28;20085;-73
2022/07/09 10:36:35;;;;;;;7.53;3.38;;;;;;;;;;4999867;28;20037;-73
2022/07/09 10:39:11;;;;;;;5.18;3.10;;;;;;;;;;4999366;28;20037;-74
2022/07/09 10:41:37;;;;;;;5.88;3.17;;;;;;;;;;5000860;28;20022;-75
2022/07/09 10:44:05;;;;;;;5.13;3.05;;;;;;;;;;5000571;28;20088;-73
2022/07/09 10:46:32;;;;;;;6.43;2.85;;;;;;;;;;5000521;28;20113;-74
2022/07/09 10:48:59;;;;;;;4.88;2.92;;;;;;;;;;5000467;28;20112;-74
2022/07/09 10:51:25;;;;;;;5.43;2.90;;;;;;;;;;4999017;28;20025;-73
2022/07/09 10:53:52;;;;;;;6.75;2.83;;;;;;;;;;5000587;28;20468;-73
2022/07/09 10:56:19;;;;;;;4.43;2.50;;;;;;;;;;5000379;28;20129;-73
2022/07/09 10:58:48;;;;;;;5.07;2.80;;;;;;;;;;4998099;28;20026;-75
2022/07/09 11:01:21;;;;;;;6.38;2.70;;;;;;;;;;4996432;28;20045;-73
2022/07/09 11:03:51;;;;;;;3.03;2.33;;;;;;;;;;4998519;28;20378;-73
2022/07/09 11:06:17;;;;;;;6.53;2.92;;;;;;;;;;5000576;28;20038;-73
2022/07/09 11:08:43;;;;;;;4.30;2.88;;;;;;;;;;4999824;28;20022;-72
2022/07/09 11:11:09;;;;;;;2.95;2.63;;;;;;;;;;4999660;28;20061;-73
2022/07/09 11:13:36;;;;;;;4.03;2.67;;;;;;;;;;4998783;28;20040;-74
2022/07/09 11:16:02;;;;;;;7.45;2.92;;;;;;;;;;5000000;28;20040;-73
2022/07/09 11:18:29;;;;;;;5.20;2.88;;;;;;;;;;4999856;28;20029;-73
2022/07/09 11:20:55;;;;;;;5.03;2.90;;;;;;;;;;4998039;28;20029;-73
2022/07/09 11:23:21;;;;;;;4.80;2.50;;;;;;;;;;5000109;28;20121;-72
2022/07/09 11:25:48;;;;;;;4.35;2.67;;;;;;;;;;5000126;28;20045;-73
2022/07/09 11:28:21;;;;;;;3.97;2.83;;;;;;;;;;4998522;28;20540;-73
2022/07/09 11:30:57;;;;;;;5.57;3.13;;;;;;;;;;4999851;28;20029;-73
2022/07/09 11:33:24;;;;;;;4.63;2.85;;;;;;;;;;4992470;28;20038;-72
2022/07/09 11:35:50;;;;;;;4.07;2.78;;;;;;;;;;5000167;28;20041;-73
2022/07/09 11:38:16;;;;;;;3.40;2.75;;;;;;;;;;4998133;28;20044;-73
2022/07/09 11:40:42;;;;;;;5.68;2.78;;;;;;;;;;4999634;28;20034;-73
2022/07/09 11:43:15;;;;;;;5.53;2.38;;;;;;;;;;4999945;28;20049;-74
2022/07/09 11:45:51;;;;;;;4.53;2.63;;;;;;;;;;4999632;28;20026;-73
2022/07/09 11:48:18;;;;;;;5.70;2.63;;;;;;;;;;4999140;28;20053;-73
2022/07/09 11:50:45;;;;;;;4.57;2.90;;;;;;;;;;4999264;28;20038;-73
2022/07/09 11:53:31;;;;;;;5.20;2.70;;;;;;;;;;4996779;28;20025;-73
2022/07/09 11:56:01;;;;;;;5.95;2.88;;;;;;;;;;4999516;28;20088;-73
2022/07/09 11:58:28;;;;;;;3.53;2.78;;;;;;;;;;4999010;28;20037;-73
2022/07/09 12:00:54;;;;;;;5.82;3.13;;;;;;;;;;4999188;28;20172;-74
2022/07/09 12:03:24;;;;;;;6.50;2.95;;;;;;;;;;4997791;28;20540;-73
2022/07/09 12:05:51;;;;;;;6.10;3.00;;;;;;;;;;4996977;28;20102;-72
2022/07/09 12:08:26;;;;;;;7.07;3.05;;;;;;;;;;4996004;28;20030;-72
2022/07/09 12:10:53;;;;;;;5.55;3.00;;;;;;;;;;4995851;28;20129;-73
2022/07/09 12:13:19;;;;;;;4.80;2.83;;;;;;;;;;4995893;28;20044;-72
2022/07/09 12:15:45;;;;;;;4.78;2.85;;;;;;;;;;4997111;28;20049;-73
2022/07/09 12:18:11;;;;;;;6.65;3.22;;;;;;;;;;4997739;28;20030;-71
2022/07/09 12:20:37;;;;;;;8.75;2.72;;;;;;;;;;4998027;28;20030;-71
2022/07/09 12:23:04;;;;;;;4.85;3.10;;;;;;;;;;4998455;28;20033;-72
2022/07/09 12:25:30;;;;;;;4.22;3.10;;;;;;;;;;4994014;28;20061;-72
2022/07/09 12:27:56;;;;;;;7.82;3.83;;;;;;;;;;4998729;28;20037;-74
2022/07/09 12:30:22;;;;;;;6.97;3.15;;;;;;;;;;4998505;28;20033;-73
2022/07/09 12:32:49;;;;;;;5.15;2.97;;;;;;;;;;4998090;28;20033;-73
2022/07/09 12:35:16;;;;;;;6.72;2.70;;;;;;;;;;4996148;28;20065;-73
2022/07/09 12:37:42;;;;;;;6.13;2.97;;;;;;;;;;4998557;28;20022;-73
2022/07/09 12:40:10;;;;;;;5.93;3.13;;;;;;;;;;4996952;28;20088;-72
2022/07/09 12:42:36;;;;;;;5.22;3.08;;;;;;;;;;4998647;28;20030;-72
2022/07/09 12:45:04;;;;;;;5.50;3.30;;;;;;;;;;4998071;28;20026;-72
2022/07/09 12:47:31;;;;;;;6.90;3.88;;;;;;;;;;4998663;28;20026;-72
2022/07/09 12:49:57;;;;;;;7.97;3.50;;;;;;;;;;4996724;28;20038;-73
2022/07/09 12:52:23;;;;;;;6.65;4.25;;;;;;;;;;4997788;28;20029;-72
2022/07/09 12:54:49;;;;;;;5.00;3.88;;;;;;;;;;4997977;28;20670;-72
2022/07/09 12:57:15;;;;;;;5.57;3.47;;;;;;;;;;4995478;28;20056;-72
2022/07/09 12:59:42;;;;;;;5.88;3.60;;;;;;;;;;4999662;28;20060;-72
2022/07/09 13:02:08;;;;;;;5.32;3.35;;;;;;;;;;5001924;28;20199;-72
2022/07/09 13:04:34;;;;;;;5.63;3.70;;;;;;;;;;4998455;28;20030;-73
2022/07/09 13:07:02;;;;;;;7.38;3.58;;;;;;;;;;5002057;28;20386;-75
2022/07/09 13:09:28;;;;;;;5.82;3.67;;;;;;;;;;5000215;28;20045;-73
2022/07/09 13:11:54;;;;;;;4.82;3.60;;;;;;;;;;5001311;28;20037;-72
2022/07/09 13:14:20;;;;;;;5.10;3.47;;;;;;;;;;5002904;28;20044;-72
2022/07/09 13:16:46;;;;;;;4.53;3.78;;;;;;;;;;5003249;28;20508;-72
2022/07/09 13:19:13;;;;;;;5.82;4.28;;;;;;;;;;5001793;28;20500;-72
2022/07/09 13:21:39;;;;;;;3.95;3.58;;;;;;;;;;5003516;28;20046;-72
2022/07/09 13:24:05;;;;;;;6.40;4.10;;;;;;;;;;5003288;28;20068;-73
2022/07/09 13:26:31;;;;;;;7.30;3.55;;;;;;;;;;4997081;28;20109;-72
2022/07/09 13:28:57;;;;;;;5.05;3.00;;;;;;;;;;5000766;28;20109;-74
2022/07/09 13:31:23;;;;;;;4.03;3.60;;;;;;;;;;4998939;28;20032;-74
2022/07/09 13:33:50;;;;;;;6.03;3.78;;;;;;;;;;5000607;28;20026;-74
2022/07/09 13:36:16;;;;;;;7.68;3.33;;;;;;;;;;5001544;28;20375;-73
2022/07/09 13:38:42;;;;;;;6.30;3.33;;;;;;;;;;5000130;28;20081;-73
2022/07/09 13:41:08;;;;;;;5.35;4.20;;;;;;;;;;5000470;28;20120;-73
2022/07/09 13:43:34;;;;;;;4.72;3.22;;;;;;;;;;5000808;28;20379;-73
2022/07/09 13:46:00;;;;;;;4.35;3.45;;;;;;;;;;4999074;28;20059;-73
2022/07/09 13:48:27;;;;;;;5.85;3.30;;;;;;;;;;5000487;28;20033;-73
2022/07/09 13:50:54;;;;;;;9.00;3.85;;;;;;;;;;4995810;28;20033;-73
2022/07/09 13:53:20;;;;;;;3.90;3.50;;;;;;;;;;5000625;28;20038;-73
2022/07/09 13:55:47;;;;;;;4.13;3.28;;;;;;;;;;5000551;28;20026;-73
2022/07/09 13:58:13;;;;;;;5.65;3.60;;;;;;;;;;5000517;28;20034;-73
2022/07/09 14:00:40;;;;;;;4.75;3.63;;;;;;;;;;4998940;28;20637;-74
2022/07/09 14:03:06;;;;;;;4.57;3.30;;;;;;;;;;5000015;28;20108;-74
2022/07/09 14:05:32;;;;;;;8.63;3.95;;;;;;;;;;5000468;28;20038;-73
2022/07/09 14:07:58;;;;;;;6.10;3.50;;;;;;;;;;5000066;28;20538;-73
2022/07/09 14:10:25;;;;;;;4.25;3.17;;;;;;;;;;4997800;28;20034;-74
2022/07/09 14:12:51;;;;;;;5.00;3.65;;;;;;;;;;5000472;28;20062;-74
2022/07/09 14:15:17;;;;;;;4.60;3.50;;;;;;;;;;5000046;28;20061;-74
2022/07/09 14:17:44;;;;;;;3.95;3.30;;;;;;;;;;5001664;28;20026;-74
2022/07/09 14:20:10;;;;;;;3.72;3.17;;;;;;;;;;5000520;28;20030;-74
2022/07/09 14:22:37;;;;;;;4.78;3.50;;;;;;;;;;5000563;28;20029;-74
2022/07/09 14:25:03;;;;;;;4.43;3.45;;;;;;;;;;4996636;28;20037;-75
2022/07/09 14:27:30;;;;;;;4.13;3.72;;;;;;;;;;4999443;28;20407;-74
2022/07/09 14:29:56;;;;;;;5.47;3.60;;;;;;;;;;4998482;28;20371;-74
2022/07/09 14:32:22;;;;;;;8.98;3.53;;;;;;;;;;4999817;28;20364;-73
2022/07/09 14:34:48;;;;;;;4.40;3.67;;;;;;;;;;4999803;28;20046;-73
2022/07/09 14:37:14;;;;;;;6.03;3.28;;;;;;;;;;4998611;28;20068;-74
2022/07/09 14:39:41;;;;;;;5.30;3.50;;;;;;;;;;4999727;28;20034;-74